createdAt,value
2023-01-31T00:01:24.582Z,7.13
2023-01-31T00:03:54.796Z,6.73
2023-01-31T00:06:25.302Z,7.50
2023-01-31T00:08:54.221Z,7.77
2023-01-31T00:11:25.754Z,7.17
2023-01-31T00:13:54.641Z,6.37
2023-01-31T00:16:24.087Z,6.63
2023-01-31T00:18:52.690Z,6.33
2023-01-31T00:21:22.525Z,8.23
2023-01-31T00:23:51.574Z,6.53
2023-01-31T00:26:21.321Z,7.20
2023-01-31T00:28:52.063Z,6.00
2023-01-31T00:31:21.265Z,5.57
2023-01-31T00:33:50.511Z,7.93
2023-01-31T00:36:20.275Z,8.07
2023-01-31T00:38:50.063Z,6.60
2023-01-31T00:41:19.054Z,6.60
2023-01-31T00:43:46.801Z,7.53
2023-01-31T00:46:16.171Z,7.03
2023-01-31T00:48:44.024Z,6.73
2023-01-31T00:51:11.647Z,6.43
2023-01-31T00:53:39.642Z,6.43
2023-01-31T00:56:09.843Z,6.73
2023-01-31T00:58:39.513Z,7.27
2023-01-31T01:01:09.273Z,7.83
2023-01-31T01:03:39.472Z,7.33
2023-01-31T01:06:08.514Z,7.03
2023-01-31T01:08:37.183Z,6.47
2023-01-31T01:11:09.084Z,7.23
2023-01-31T01:13:37.193Z,6.97
2023-01-31T01:16:07.086Z,7.70
2023-01-31T01:18:36.183Z,6.57
2023-01-31T01:21:11.491Z,7.70
2023-01-31T01:23:40.091Z,7.53
2023-01-31T01:26:15.215Z,7.57
2023-01-31T01:28:43.098Z,7.33
2023-01-31T01:31:13.139Z,7.50
2023-01-31T01:33:40.982Z,7.53
2023-01-31T01:36:13.216Z,7.23
2023-01-31T01:38:41.916Z,7.83
2023-01-31T01:41:11.312Z,9.37
2023-01-31T01:43:44.358Z,7.83
2023-01-31T01:46:15.191Z,7.40
2023-01-31T01:48:45.516Z,7.30
2023-01-31T01:51:19.283Z,7.00
2023-01-31T01:53:51.236Z,8.13
2023-01-31T01:56:22.048Z,8.70
2023-01-31T01:58:55.968Z,6.23
2023-01-31T02:01:26.111Z,6.47
2023-01-31T02:03:54.528Z,6.97
2023-01-31T02:06:23.658Z,7.20
2023-01-31T02:08:51.475Z,6.93
2023-01-31T02:11:23.670Z,6.27
2023-01-31T02:13:54.514Z,7.77
2023-01-31T02:16:22.352Z,7.20
2023-01-31T02:18:51.396Z,7.43
2023-01-31T02:21:52.329Z,7.13
2023-01-31T02:25:01.340Z,6.33
2023-01-31T02:28:13.742Z,5.30
2023-01-31T02:31:19.993Z,5.80
2023-01-31T02:33:57.775Z,5.83
2023-01-31T02:36:34.188Z,5.93
2023-01-31T02:39:09.731Z,5.27
2023-01-31T02:41:44.231Z,6.33
2023-01-31T02:44:38.571Z,6.40
2023-01-31T02:47:20.882Z,6.20
2023-01-31T02:49:55.945Z,5.73
2023-01-31T02:52:33.099Z,6.50
2023-01-31T02:55:26.913Z,6.43
2023-01-31T02:57:58.102Z,6.47
2023-01-31T03:00:27.028Z,6.10
2023-01-31T03:02:54.897Z,6.37
2023-01-31T03:05:24.401Z,6.93
2023-01-31T03:07:55.701Z,6.43
2023-01-31T03:10:39.302Z,6.17
2023-01-31T03:13:22.565Z,6.50
2023-01-31T03:16:21.360Z,7.20
2023-01-31T03:18:58.608Z,5.50
2023-01-31T03:21:33.869Z,5.87
2023-01-31T03:24:03.288Z,6.00
2023-01-31T03:26:31.115Z,5.90
2023-01-31T03:29:02.098Z,5.80
2023-01-31T03:31:33.909Z,6.23
2023-01-31T03:34:05.329Z,6.50
2023-01-31T03:36:39.943Z,5.77
2023-01-31T03:39:18.626Z,6.17
2023-01-31T03:41:57.610Z,6.03
2023-01-31T03:44:35.261Z,6.43
2023-01-31T03:47:07.936Z,6.47
2023-01-31T03:49:37.962Z,5.87
2023-01-31T03:52:10.186Z,5.07
2023-01-31T03:54:42.645Z,5.70
2023-01-31T03:57:18.479Z,6.07
2023-01-31T03:59:53.878Z,5.83
2023-01-31T04:02:24.548Z,5.97
2023-01-31T04:04:56.970Z,5.77
2023-01-31T04:07:26.175Z,6.83
2023-01-31T04:09:53.927Z,6.20
2023-01-31T04:12:21.611Z,5.97
2023-01-31T04:14:49.262Z,7.00
2023-01-31T04:17:16.945Z,6.07
2023-01-31T04:19:44.651Z,6.50
2023-01-31T04:22:12.805Z,6.97
2023-01-31T04:24:41.927Z,6.37
2023-01-31T04:27:09.968Z,6.37
2023-01-31T04:29:37.615Z,7.27
2023-01-31T04:32:05.881Z,6.00
2023-01-31T04:34:34.150Z,6.97
2023-01-31T04:37:01.899Z,6.27
2023-01-31T04:39:29.559Z,7.20
2023-01-31T04:41:58.653Z,7.33
2023-01-31T04:44:26.329Z,6.67
2023-01-31T04:46:54.149Z,8.20
2023-01-31T04:49:21.894Z,7.77
2023-01-31T04:51:49.565Z,7.33
2023-01-31T04:54:19.671Z,7.60
2023-01-31T04:56:47.661Z,7.90
2023-01-31T04:59:16.683Z,8.73
2023-01-31T05:01:44.346Z,10.13
2023-01-31T05:04:12.709Z,8.53
2023-01-31T05:06:40.380Z,8.27
2023-01-31T05:09:08.242Z,8.67
2023-01-31T05:11:36.344Z,8.37
2023-01-31T05:14:04.112Z,8.07
2023-01-31T05:16:33.138Z,8.40
2023-01-31T05:19:01.175Z,8.67
2023-01-31T05:21:29.015Z,8.83
2023-01-31T05:23:56.723Z,10.30
2023-01-31T05:26:24.432Z,8.63
2023-01-31T05:28:52.226Z,8.97
2023-01-31T05:31:19.966Z,8.70
2023-01-31T05:33:49.539Z,9.57
2023-01-31T05:36:17.209Z,8.40
2023-01-31T05:38:44.887Z,9.03
2023-01-31T05:41:12.831Z,9.33
2023-01-31T05:43:40.554Z,9.03
2023-01-31T05:46:08.268Z,8.97
2023-01-31T05:48:36.034Z,8.03
2023-01-31T05:51:05.462Z,7.93
2023-01-31T05:53:33.115Z,7.90
2023-01-31T05:56:01.469Z,8.87
2023-01-31T05:58:29.190Z,8.87
2023-01-31T06:00:57.436Z,9.37
2023-01-31T06:03:25.182Z,7.80
2023-01-31T06:05:52.871Z,8.77
2023-01-31T06:08:22.283Z,8.93
2023-01-31T06:10:50.107Z,8.60
2023-01-31T06:13:17.786Z,8.30
2023-01-31T06:15:45.947Z,9.00
2023-01-31T06:18:14.564Z,9.37
2023-01-31T06:20:42.263Z,8.57
2023-01-31T06:23:09.953Z,8.80
2023-01-31T06:25:39.059Z,9.20
2023-01-31T06:28:06.766Z,9.17
2023-01-31T06:30:34.853Z,9.17
2023-01-31T06:33:02.695Z,10.90
2023-01-31T06:35:30.894Z,9.90
2023-01-31T06:37:58.586Z,9.83
2023-01-31T06:40:26.518Z,10.00
2023-01-31T06:42:55.635Z,10.47
2023-01-31T06:45:23.596Z,10.13
2023-01-31T06:47:51.352Z,13.20
2023-01-31T06:50:19.629Z,10.50
2023-01-31T06:52:47.878Z,8.97
2023-01-31T06:55:15.908Z,10.30
2023-01-31T06:57:50.442Z,10.43
2023-01-31T07:00:22.373Z,9.77
2023-01-31T07:02:50.115Z,10.60
2023-01-31T07:05:18.356Z,11.53
2023-01-31T07:07:46.409Z,10.33
2023-01-31T07:10:14.465Z,10.90
2023-01-31T07:12:42.218Z,10.63
2023-01-31T07:15:11.336Z,10.30
2023-01-31T07:17:44.161Z,10.07
2023-01-31T07:20:13.052Z,10.07
2023-01-31T07:22:40.841Z,9.73
2023-01-31T07:25:10.818Z,9.47
2023-01-31T07:27:38.505Z,10.70
2023-01-31T07:30:07.534Z,10.53
2023-01-31T07:32:35.325Z,9.13
2023-01-31T07:35:04.702Z,8.83
2023-01-31T07:37:32.488Z,9.80
2023-01-31T07:40:00.282Z,9.03
2023-01-31T07:42:29.916Z,9.33
2023-01-31T07:44:57.619Z,8.47
2023-01-31T07:47:25.310Z,7.77
2023-01-31T07:49:52.997Z,8.13
2023-01-31T07:52:22.047Z,8.10
2023-01-31T07:54:49.880Z,8.33
2023-01-31T07:57:17.831Z,8.13
2023-01-31T07:59:45.699Z,7.40
2023-01-31T08:02:32.431Z,7.97
2023-01-31T08:05:00.771Z,7.90
2023-01-31T08:07:30.850Z,8.03
2023-01-31T08:09:58.566Z,7.97
2023-01-31T08:12:26.229Z,7.17
2023-01-31T08:14:53.884Z,6.90
2023-01-31T08:17:21.586Z,7.33
2023-01-31T08:19:49.235Z,7.17
2023-01-31T08:22:16.932Z,6.97
2023-01-31T08:24:45.998Z,7.03
2023-01-31T08:27:13.931Z,6.67
2023-01-31T08:29:41.622Z,6.23
2023-01-31T08:32:09.369Z,6.23
2023-01-31T08:34:37.107Z,6.23
2023-01-31T08:37:04.901Z,7.37
2023-01-31T08:39:32.736Z,6.17
2023-01-31T08:42:01.762Z,6.33
2023-01-31T08:44:29.502Z,6.50
2023-01-31T08:46:59.226Z,6.80
2023-01-31T08:49:27.120Z,6.30
2023-01-31T08:51:54.789Z,6.17
2023-01-31T08:54:22.512Z,6.70
2023-01-31T08:56:50.280Z,7.30
2023-01-31T08:59:19.320Z,6.63
2023-01-31T09:01:48.056Z,6.33
2023-01-31T09:04:15.722Z,6.30
2023-01-31T09:06:43.780Z,6.97
2023-01-31T09:09:11.864Z,6.83
2023-01-31T09:11:39.736Z,6.70
2023-01-31T09:14:07.526Z,6.67
2023-01-31T09:16:36.762Z,7.60
2023-01-31T09:19:04.581Z,6.57
2023-01-31T09:21:32.514Z,8.60
2023-01-31T09:24:03.828Z,7.30
2023-01-31T09:26:32.356Z,7.60
2023-01-31T09:29:01.503Z,7.73
2023-01-31T09:31:30.224Z,8.27
2023-01-31T09:33:59.512Z,7.47
2023-01-31T09:36:27.773Z,7.93
2023-01-31T09:38:57.004Z,7.97
2023-01-31T09:41:31.075Z,7.17
2023-01-31T09:44:04.157Z,7.37
2023-01-31T09:46:37.551Z,8.53
2023-01-31T09:49:11.693Z,8.13
2023-01-31T09:51:40.279Z,7.40
2023-01-31T09:54:18.344Z,7.70
2023-01-31T09:56:55.536Z,8.20
2023-01-31T09:59:27.217Z,6.80
2023-01-31T10:02:04.236Z,7.33
2023-01-31T10:04:45.869Z,7.33
2023-01-31T10:07:18.900Z,8.83
2023-01-31T10:09:54.855Z,7.70
2023-01-31T10:12:26.379Z,7.67
2023-01-31T10:14:57.022Z,7.80
2023-01-31T10:17:29.432Z,8.43
2023-01-31T10:20:04.076Z,8.83
2023-01-31T10:22:39.497Z,11.17
2023-01-31T10:25:21.055Z,8.23
2023-01-31T10:27:53.555Z,8.70
2023-01-31T10:30:25.569Z,8.90
2023-01-31T10:33:00.036Z,7.67
2023-01-31T10:35:34.448Z,8.27
2023-01-31T10:38:07.128Z,9.70
2023-01-31T10:40:38.847Z,7.87
2023-01-31T10:43:17.611Z,7.87
2023-01-31T10:45:45.555Z,7.43
2023-01-31T10:48:17.269Z,8.03
2023-01-31T10:51:05.171Z,8.30
2023-01-31T10:53:46.219Z,8.10
2023-01-31T10:56:21.198Z,7.57
2023-01-31T10:58:49.558Z,8.57
2023-01-31T11:01:17.298Z,6.77
2023-01-31T11:03:56.510Z,7.00
2023-01-31T11:06:26.174Z,7.67
2023-01-31T11:08:58.071Z,6.63
2023-01-31T11:11:27.806Z,7.93
2023-01-31T11:13:59.313Z,7.53
2023-01-31T11:16:31.101Z,7.83
2023-01-31T11:19:00.423Z,7.23
2023-01-31T11:21:32.251Z,7.27
2023-01-31T11:24:04.881Z,7.60
2023-01-31T11:26:34.599Z,7.90
2023-01-31T11:29:08.545Z,7.93
2023-01-31T11:31:42.834Z,7.40
2023-01-31T11:34:21.067Z,7.67
2023-01-31T11:36:50.459Z,7.70
2023-01-31T11:39:28.375Z,8.17
2023-01-31T11:41:56.741Z,7.90
2023-01-31T11:44:24.886Z,8.17
2023-01-31T11:46:56.394Z,11.10
2023-01-31T11:49:30.450Z,12.40
2023-01-31T11:52:01.614Z,11.03
2023-01-31T11:54:32.094Z,11.23
2023-01-31T11:57:00.933Z,8.47
2023-01-31T11:59:30.958Z,7.83
2023-01-31T12:02:01.244Z,8.27
2023-01-31T12:04:33.998Z,7.03
2023-01-31T12:07:21.327Z,7.53
2023-01-31T12:09:49.183Z,8.57
2023-01-31T12:12:35.768Z,7.33
2023-01-31T12:15:05.995Z,8.70
2023-01-31T12:17:42.945Z,7.77
2023-01-31T12:20:28.188Z,8.03
2023-01-31T12:23:08.089Z,9.70
2023-01-31T12:25:52.918Z,8.17
2023-01-31T12:28:32.351Z,8.27
2023-01-31T12:31:19.863Z,7.33
2023-01-31T12:34:03.708Z,8.33
2023-01-31T12:36:44.469Z,7.50
2023-01-31T12:39:39.095Z,7.70
2023-01-31T12:42:24.416Z,6.90
2023-01-31T12:45:01.989Z,5.63
2023-01-31T12:47:50.234Z,6.63
2023-01-31T12:50:29.860Z,6.80
2023-01-31T12:53:26.892Z,6.43
2023-01-31T12:56:13.443Z,5.50
2023-01-31T12:58:51.203Z,5.97
2023-01-31T13:01:24.315Z,6.63
2023-01-31T13:04:07.582Z,5.47
2023-01-31T13:06:40.713Z,5.93
2023-01-31T13:09:14.561Z,6.57
2023-01-31T13:11:50.041Z,6.10
2023-01-31T13:14:22.489Z,5.50
2023-01-31T13:16:57.078Z,6.97
2023-01-31T13:19:29.065Z,5.57
2023-01-31T13:22:01.194Z,6.20
2023-01-31T13:24:34.561Z,6.40
2023-01-31T13:27:11.208Z,6.30
2023-01-31T13:29:44.761Z,5.83
2023-01-31T13:32:20.334Z,5.97
2023-01-31T13:34:53.231Z,6.40
2023-01-31T13:37:22.196Z,6.03
2023-01-31T13:39:54.857Z,6.27
2023-01-31T13:42:24.262Z,5.90
2023-01-31T13:44:52.108Z,6.43
2023-01-31T13:47:25.454Z,5.67
2023-01-31T13:49:57.235Z,5.27
2023-01-31T13:52:29.478Z,5.90
2023-01-31T13:55:01.105Z,6.77
2023-01-31T13:57:33.151Z,6.23
2023-01-31T14:00:07.968Z,6.43
2023-01-31T14:02:35.895Z,5.53
2023-01-31T14:05:09.291Z,7.77
2023-01-31T14:07:37.073Z,5.23
2023-01-31T14:10:32.578Z,6.00
2023-01-31T14:13:39.799Z,5.80
2023-01-31T14:16:38.845Z,5.90
2023-01-31T14:19:27.349Z,6.87
2023-01-31T14:21:58.006Z,5.77
2023-01-31T14:25:05.157Z,7.13
2023-01-31T14:27:40.420Z,6.53
2023-01-31T14:30:28.338Z,6.83
2023-01-31T14:33:06.674Z,5.10
2023-01-31T14:35:59.170Z,6.17
2023-01-31T14:38:44.876Z,6.50
2023-01-31T14:41:22.247Z,6.40
2023-01-31T14:44:05.744Z,5.50
2023-01-31T14:46:57.264Z,6.00
2023-01-31T14:49:46.769Z,5.27
2023-01-31T14:52:37.277Z,6.00
2023-01-31T14:55:28.143Z,6.07
2023-01-31T14:57:59.855Z,6.00
2023-01-31T15:00:31.460Z,6.53
2023-01-31T15:03:07.005Z,5.60
2023-01-31T15:05:49.120Z,6.40
2023-01-31T15:08:41.082Z,5.87
2023-01-31T15:11:14.811Z,7.20
2023-01-31T15:13:47.245Z,6.10
2023-01-31T15:16:26.727Z,5.97
2023-01-31T15:19:00.769Z,5.77
2023-01-31T15:21:32.222Z,5.77
2023-01-31T15:24:01.940Z,5.87
2023-01-31T15:26:32.738Z,6.47
2023-01-31T15:29:01.622Z,5.77
2023-01-31T15:31:34.395Z,6.60
2023-01-31T15:34:08.299Z,5.97
2023-01-31T15:36:45.449Z,6.23
2023-01-31T15:39:23.558Z,6.57
2023-01-31T15:41:51.340Z,6.07
2023-01-31T15:44:21.157Z,6.00
2023-01-31T15:46:50.087Z,6.50
2023-01-31T15:49:38.543Z,7.00
2023-01-31T15:52:14.926Z,6.27
2023-01-31T15:54:52.736Z,6.40
2023-01-31T15:57:22.928Z,6.20
2023-01-31T15:59:50.663Z,5.87
2023-01-31T16:02:44.607Z,5.70
2023-01-31T16:05:50.682Z,5.20
2023-01-31T16:08:30.645Z,6.33
2023-01-31T16:10:59.050Z,5.90
2023-01-31T16:13:27.984Z,6.53
2023-01-31T16:15:56.607Z,6.07
2023-01-31T16:18:25.848Z,5.63
2023-01-31T16:20:55.213Z,4.87
2023-01-31T16:23:30.985Z,5.20
2023-01-31T16:26:04.937Z,5.13
2023-01-31T16:28:39.021Z,4.97
2023-01-31T16:31:10.128Z,4.17
2023-01-31T16:33:41.765Z,4.83
2023-01-31T16:36:16.580Z,4.50
2023-01-31T16:38:57.172Z,4.00
2023-01-31T16:41:41.337Z,5.00
2023-01-31T16:44:14.682Z,4.77
2023-01-31T16:46:45.416Z,5.07
2023-01-31T16:49:20.713Z,4.47
2023-01-31T16:51:49.196Z,4.20
2023-01-31T16:54:24.006Z,5.10
2023-01-31T16:57:21.306Z,4.53
2023-01-31T16:59:50.803Z,3.90
2023-01-31T17:02:26.777Z,3.57
2023-01-31T17:04:58.049Z,3.37
2023-01-31T17:07:30.194Z,3.30
2023-01-31T17:10:01.322Z,3.90
2023-01-31T17:12:30.449Z,3.53
2023-01-31T17:15:02.466Z,4.23
2023-01-31T17:17:34.090Z,4.13
2023-01-31T17:20:02.147Z,3.40
2023-01-31T17:22:30.495Z,3.20
2023-01-31T17:24:59.667Z,3.80
2023-01-31T17:27:27.425Z,4.07
2023-01-31T17:29:55.138Z,3.90
2023-01-31T17:32:23.020Z,3.10
2023-01-31T17:34:50.864Z,3.70
2023-01-31T17:37:26.792Z,3.57
2023-01-31T17:40:00.977Z,3.60
2023-01-31T17:42:28.652Z,3.30
2023-01-31T17:44:56.348Z,3.47
2023-01-31T17:47:26.880Z,3.50
2023-01-31T17:49:54.855Z,3.10
2023-01-31T17:52:22.581Z,4.37
2023-01-31T17:54:50.378Z,3.40
2023-01-31T17:57:19.570Z,3.40
2023-01-31T17:59:47.252Z,3.43
2023-01-31T18:02:14.995Z,3.07
2023-01-31T18:04:42.684Z,3.83
2023-01-31T18:07:10.633Z,4.03
2023-01-31T18:09:38.617Z,3.13
2023-01-31T18:12:06.638Z,4.13
2023-01-31T18:14:35.742Z,3.60
2023-01-31T18:17:03.535Z,3.43
2023-01-31T18:19:31.378Z,3.83
2023-01-31T18:21:59.629Z,3.07
2023-01-31T18:24:27.437Z,3.10
2023-01-31T18:26:56.888Z,3.50
2023-01-31T18:29:26.261Z,3.57
2023-01-31T18:31:57.863Z,3.23
2023-01-31T18:34:26.147Z,3.60
2023-01-31T18:36:53.851Z,3.17
2023-01-31T18:39:21.629Z,3.47
2023-01-31T18:41:49.245Z,3.23
2023-01-31T18:44:16.942Z,3.90
2023-01-31T18:46:47.195Z,3.33
2023-01-31T18:49:17.850Z,3.00
2023-01-31T18:51:46.708Z,2.93
2023-01-31T18:54:14.364Z,2.93
2023-01-31T18:56:42.134Z,3.73
2023-01-31T18:59:10.127Z,2.93
2023-01-31T19:01:40.620Z,3.00
2023-01-31T19:04:09.974Z,3.17
2023-01-31T19:06:40.945Z,2.70
2023-01-31T19:09:10.011Z,3.10
2023-01-31T19:11:38.136Z,3.40
2023-01-31T19:14:07.476Z,3.03
2023-01-31T19:16:39.817Z,3.07
2023-01-31T19:19:07.973Z,2.90
2023-01-31T19:21:37.334Z,3.63
2023-01-31T19:24:08.321Z,3.43
2023-01-31T19:26:36.897Z,3.17
2023-01-31T19:29:08.079Z,3.07
2023-01-31T19:31:37.164Z,3.40
2023-01-31T19:34:06.622Z,2.77
2023-01-31T19:36:36.509Z,3.00
2023-01-31T19:39:07.825Z,2.70
2023-01-31T19:41:38.379Z,3.17
2023-01-31T19:44:06.291Z,3.10
2023-01-31T19:46:36.878Z,2.73
2023-01-31T19:49:04.974Z,2.60
2023-01-31T19:51:35.425Z,2.60
2023-01-31T19:54:04.021Z,2.90
2023-01-31T19:56:35.496Z,2.37
2023-01-31T19:59:06.411Z,2.93
2023-01-31T20:01:34.390Z,2.80
2023-01-31T20:04:04.131Z,2.50
2023-01-31T20:09:45.602Z,2.23
2023-01-31T20:12:14.659Z,2.70
2023-01-31T20:14:48.746Z,2.50
2023-01-31T20:17:16.551Z,2.37
2023-01-31T20:19:46.341Z,2.27
2023-01-31T20:22:15.656Z,2.17
2023-01-31T20:24:46.481Z,2.60
2023-01-31T20:27:19.183Z,2.27
2023-01-31T20:29:47.030Z,1.73
2023-01-31T20:32:17.233Z,2.00
2023-01-31T20:34:45.059Z,2.00
2023-01-31T20:37:12.799Z,2.13
2023-01-31T20:39:40.655Z,2.20
2023-01-31T20:42:10.555Z,1.93
2023-01-31T20:44:39.765Z,1.70
2023-01-31T20:47:07.732Z,1.97
2023-01-31T20:49:35.771Z,2.10
2023-01-31T20:52:03.508Z,2.10
2023-01-31T20:54:31.466Z,1.87
2023-01-31T20:56:59.246Z,1.90
2023-01-31T20:59:27.204Z,1.70
2023-01-31T21:01:56.416Z,1.87
2023-01-31T21:04:24.117Z,1.60
2023-01-31T21:06:51.806Z,1.50
2023-01-31T21:09:19.821Z,1.90
2023-01-31T21:11:48.657Z,1.70
2023-01-31T21:14:16.376Z,1.70
2023-01-31T21:16:43.998Z,1.53
2023-01-31T21:19:13.474Z,2.17
2023-01-31T21:21:41.213Z,1.57
2023-01-31T21:24:09.516Z,1.70
2023-01-31T21:26:37.513Z,1.63
2023-01-31T21:29:05.431Z,1.60
2023-01-31T21:31:34.008Z,1.77
2023-01-31T21:34:05.502Z,1.60
2023-01-31T21:36:36.220Z,1.57
2023-01-31T21:39:04.303Z,1.70
2023-01-31T21:41:49.781Z,2.40
2023-01-31T21:44:17.687Z,1.60
2023-01-31T21:46:49.462Z,1.80
2023-01-31T21:49:17.108Z,2.00
2023-01-31T21:51:46.150Z,1.60
2023-01-31T21:54:13.971Z,1.87
2023-01-31T21:56:41.755Z,1.80
2023-01-31T21:59:09.585Z,1.60
2023-01-31T22:01:37.549Z,1.80
2023-01-31T22:04:05.406Z,1.87
2023-01-31T22:06:37.466Z,2.17
2023-01-31T22:09:08.890Z,2.00
2023-01-31T22:11:37.175Z,1.53
2023-01-31T22:14:07.489Z,1.90
2023-01-31T22:16:35.577Z,1.87
2023-01-31T22:19:04.264Z,2.03
2023-01-31T22:21:33.567Z,2.27
2023-01-31T22:24:03.518Z,1.80
2023-01-31T22:26:34.649Z,1.93
2023-01-31T22:29:04.726Z,1.70
2023-01-31T22:31:33.668Z,1.80
2023-01-31T22:34:02.005Z,1.87
2023-01-31T22:36:29.861Z,1.90
2023-01-31T22:38:57.591Z,1.80
2023-01-31T22:41:25.528Z,2.07
2023-01-31T22:43:55.001Z,2.23
2023-01-31T22:46:24.440Z,1.97
2023-01-31T22:48:54.079Z,2.17
2023-01-31T22:51:24.070Z,2.10
2023-01-31T22:53:51.836Z,2.13
2023-01-31T22:56:21.549Z,2.13
2023-01-31T22:58:49.607Z,2.07
2023-01-31T23:01:21.639Z,2.17
2023-01-31T23:03:50.111Z,2.13
2023-01-31T23:06:18.981Z,1.83
2023-01-31T23:08:46.768Z,1.97
2023-01-31T23:11:17.276Z,2.17
2023-01-31T23:13:45.434Z,2.00
2023-01-31T23:16:16.830Z,2.20
2023-01-31T23:18:46.410Z,2.50
2023-01-31T23:21:16.000Z,2.30
2023-01-31T23:23:43.989Z,2.40
2023-01-31T23:26:13.030Z,2.10
2023-01-31T23:28:40.766Z,2.60
2023-01-31T23:31:08.938Z,2.47
2023-01-31T23:33:36.785Z,2.53
2023-01-31T23:36:06.936Z,2.20
2023-01-31T23:38:34.636Z,2.30
2023-01-31T23:41:04.339Z,2.60
2023-01-31T23:43:32.055Z,2.60
2023-01-31T23:45:59.708Z,2.63
2023-01-31T23:48:27.407Z,2.53
2023-01-31T23:50:55.070Z,2.03
2023-01-31T23:53:24.489Z,2.40
2023-01-31T23:55:53.627Z,2.27
2023-01-31T23:58:21.354Z,2.20
